createdAt,value
2018-04-17T00:00:29.389Z,92.90
2018-04-17T00:03:01.582Z,93.00
2018-04-17T00:05:33.817Z,93.00
2018-04-17T00:08:06.034Z,93.00
2018-04-17T00:10:38.170Z,93.10
2018-04-17T00:13:10.862Z,93.20
2018-04-17T00:15:43.301Z,93.40
2018-04-17T00:18:15.442Z,93.20
2018-04-17T00:20:48.401Z,93.10
2018-04-17T00:23:20.494Z,93.10
2018-04-17T00:25:53.609Z,93.20
2018-04-17T00:28:25.931Z,93.20
2018-04-17T00:30:58.254Z,93.30
2018-04-17T00:33:30.387Z,93.30
2018-04-17T00:36:03.244Z,93.30
2018-04-17T00:38:35.567Z,93.30
2018-04-17T00:41:07.595Z,93.50
2018-04-17T00:43:39.709Z,93.20
2018-04-17T00:46:12.392Z,93.60
2018-04-17T00:48:44.613Z,93.30
2018-04-17T00:51:16.931Z,93.20
2018-04-17T00:53:59.312Z,93.40
2018-04-17T00:56:32.676Z,93.50
2018-04-17T00:59:04.809Z,93.50
2018-04-17T01:01:36.928Z,93.40
2018-04-17T01:04:09.171Z,94.00
2018-04-17T01:06:41.349Z,94.00
2018-04-17T01:09:14.993Z,94.10
2018-04-17T01:11:47.173Z,93.90
2018-04-17T01:14:19.401Z,93.90
2018-04-17T01:16:52.224Z,94.00
2018-04-17T01:19:27.042Z,94.20
2018-04-17T01:22:00.154Z,94.20
2018-04-17T01:24:32.254Z,94.20
2018-04-17T01:27:04.552Z,94.10
2018-04-17T01:29:37.484Z,94.30
2018-04-17T01:32:09.765Z,94.30
2018-04-17T01:34:42.141Z,94.00
2018-04-17T01:37:14.228Z,94.10
2018-04-17T01:39:46.658Z,93.80
2018-04-17T01:42:18.758Z,93.90
2018-04-17T01:44:51.069Z,94.00
2018-04-17T01:47:23.958Z,94.10
2018-04-17T01:49:57.206Z,94.00
2018-04-17T01:52:29.597Z,94.00
2018-04-17T01:55:01.938Z,94.00
2018-04-17T01:57:34.234Z,94.00
2018-04-17T02:00:06.391Z,94.00
2018-04-17T02:02:38.576Z,94.00
2018-04-17T02:05:10.753Z,94.00
2018-04-17T02:07:43.184Z,94.10
2018-04-17T02:10:15.468Z,94.30
2018-04-17T02:12:47.814Z,94.20
2018-04-17T02:15:20.044Z,94.30
2018-04-17T02:17:52.966Z,94.30
2018-04-17T02:20:25.092Z,94.30
2018-04-17T02:22:58.161Z,94.30
2018-04-17T02:25:30.229Z,94.30
2018-04-17T02:28:02.320Z,94.30
2018-04-17T02:30:35.286Z,94.10
2018-04-17T02:33:07.467Z,94.10
2018-04-17T02:35:40.424Z,94.40
2018-04-17T02:38:12.578Z,94.10
2018-04-17T02:40:44.699Z,94.10
2018-04-17T02:43:17.768Z,94.10
2018-04-17T02:45:49.930Z,94.10
2018-04-17T02:48:22.165Z,94.00
2018-04-17T02:50:54.649Z,94.00
2018-04-17T02:53:26.916Z,94.00
2018-04-17T02:55:59.288Z,94.00
2018-04-17T02:58:31.394Z,93.90
2018-04-17T03:01:03.792Z,93.90
2018-04-17T03:03:35.992Z,93.90
2018-04-17T03:06:08.300Z,93.80
2018-04-17T03:08:40.585Z,93.80
2018-04-17T03:11:12.824Z,93.90
2018-04-17T03:13:45.211Z,93.80
2018-04-17T03:16:18.481Z,94.10
2018-04-17T03:18:50.639Z,93.90
2018-04-17T03:21:23.694Z,93.90
2018-04-17T03:23:55.722Z,93.90
2018-04-17T03:26:27.906Z,93.80
2018-04-17T03:29:01.869Z,93.70
2018-04-17T03:31:39.554Z,94.00
2018-04-17T03:34:17.311Z,94.00
2018-04-17T03:36:54.085Z,93.70
2018-04-17T03:39:32.803Z,93.60
2018-04-17T03:42:10.617Z,93.60
2018-04-17T03:44:45.993Z,93.60
2018-04-17T03:47:18.176Z,93.60
2018-04-17T03:49:50.378Z,93.60
2018-04-17T03:52:22.589Z,93.80
2018-04-17T03:54:54.938Z,93.90
2018-04-17T03:57:27.828Z,94.00
2018-04-17T04:00:00.742Z,93.90
2018-04-17T04:02:32.859Z,93.90
2018-04-17T04:05:05.481Z,94.00
2018-04-17T04:07:37.661Z,94.00
2018-04-17T04:10:09.735Z,94.00
2018-04-17T04:12:42.360Z,94.10
2018-04-17T04:15:15.378Z,94.20
2018-04-17T04:18:00.493Z,94.20
2018-04-17T04:20:45.136Z,94.50
2018-04-17T04:23:30.560Z,94.40
2018-04-17T04:26:15.292Z,94.60
2018-04-17T04:28:48.164Z,94.70
2018-04-17T04:31:20.977Z,94.70
2018-04-17T04:33:53.975Z,94.80
2018-04-17T04:36:27.213Z,94.90
2018-04-17T04:38:59.656Z,94.80
2018-04-17T04:41:31.745Z,95.10
2018-04-17T04:44:03.828Z,95.00
2018-04-17T04:46:36.166Z,95.00
2018-04-17T04:49:08.343Z,95.00
2018-04-17T04:51:40.524Z,95.00
2018-04-17T04:54:12.616Z,95.10
2018-04-17T04:56:45.065Z,95.00
2018-04-17T04:59:17.553Z,95.00
2018-04-17T05:01:49.640Z,95.10
2018-04-17T05:04:21.790Z,95.10
2018-04-17T05:06:54.085Z,95.20
2018-04-17T05:09:26.217Z,95.10
2018-04-17T05:11:58.417Z,95.00
2018-04-17T05:14:30.568Z,95.10
2018-04-17T05:17:03.201Z,95.00
2018-04-17T05:19:35.293Z,94.80
2018-04-17T05:22:08.077Z,94.90
2018-04-17T05:24:45.859Z,94.80
2018-04-17T05:27:24.224Z,94.70
2018-04-17T05:30:01.118Z,94.30
2018-04-17T05:32:34.188Z,94.00
2018-04-17T05:35:06.430Z,93.90
2018-04-17T05:37:38.584Z,93.70
2018-04-17T05:40:11.342Z,93.50
2018-04-17T05:42:43.461Z,93.30
2018-04-17T05:45:15.529Z,93.10
2018-04-17T05:47:47.615Z,92.70
2018-04-17T05:50:20.685Z,93.00
2018-04-17T05:52:52.826Z,92.70
2018-04-17T05:55:24.906Z,92.10
2018-04-17T05:57:56.934Z,91.90
2018-04-17T06:00:29.296Z,91.40
2018-04-17T06:03:02.154Z,91.40
2018-04-17T06:05:34.370Z,91.40
2018-04-17T06:08:06.584Z,91.10
2018-04-17T06:10:38.721Z,91.10
2018-04-17T06:13:10.892Z,91.00
2018-04-17T06:15:44.030Z,90.90
2018-04-17T06:18:16.982Z,90.40
2018-04-17T06:20:49.411Z,90.40
2018-04-17T06:23:21.706Z,90.30
2018-04-17T06:25:54.616Z,89.50
2018-04-17T06:28:26.775Z,89.40
2018-04-17T06:30:59.567Z,87.60
2018-04-17T06:33:31.849Z,88.60
2018-04-17T06:36:04.131Z,85.90
2018-04-17T06:38:36.984Z,74.90
2018-04-17T06:41:09.952Z,70.00
2018-04-17T06:43:42.045Z,69.20
2018-04-17T06:46:14.319Z,66.30
2018-04-17T06:48:46.392Z,62.60
2018-04-17T06:51:18.528Z,59.10
2018-04-17T06:53:50.962Z,58.50
2018-04-17T06:56:23.793Z,59.10
2018-04-17T06:58:55.951Z,59.60
2018-04-17T07:01:27.997Z,58.90
2018-04-17T07:04:00.034Z,55.70
2018-04-17T07:06:32.986Z,56.00
2018-04-17T07:09:05.194Z,55.80
2018-04-17T07:11:38.202Z,54.60
2018-04-17T07:14:10.553Z,54.60
2018-04-17T07:16:45.908Z,52.00
2018-04-17T07:19:18.122Z,52.00
2018-04-17T07:21:53.204Z,52.90
2018-04-17T07:24:25.315Z,52.50
2018-04-17T07:26:57.486Z,51.40
2018-04-17T07:29:29.902Z,52.10
2018-04-17T07:32:02.001Z,51.50
2018-04-17T07:34:34.261Z,51.40
2018-04-17T07:37:06.598Z,49.70
2018-04-17T07:39:40.000Z,47.60
2018-04-17T07:42:12.277Z,47.60
2018-04-17T07:44:45.148Z,45.10
2018-04-17T07:47:26.572Z,45.00
2018-04-17T07:49:59.501Z,44.10
2018-04-17T07:52:31.933Z,43.90
2018-04-17T07:55:04.118Z,40.90
2018-04-17T07:57:36.197Z,42.30
2018-04-17T08:00:08.376Z,40.60
2018-04-17T08:02:40.710Z,41.60
2018-04-17T08:05:12.911Z,40.60
2018-04-17T08:07:44.961Z,41.30
2018-04-17T08:10:16.989Z,41.30
2018-04-17T08:12:49.961Z,38.50
2018-04-17T08:15:22.938Z,39.90
2018-04-17T08:17:54.989Z,39.90
2018-04-17T08:20:27.145Z,40.00
2018-04-17T08:22:59.227Z,39.30
2018-04-17T08:25:31.325Z,38.80
2018-04-17T08:28:03.544Z,38.40
2018-04-17T08:30:35.865Z,37.30
2018-04-17T08:33:08.176Z,37.60
2018-04-17T08:35:40.877Z,39.20
2018-04-17T08:38:13.008Z,38.50
2018-04-17T08:40:45.446Z,38.10
2018-04-17T08:43:18.557Z,37.30
2018-04-17T08:45:51.224Z,37.20
2018-04-17T08:48:23.394Z,37.30
2018-04-17T08:50:55.685Z,41.50
2018-04-17T08:53:27.787Z,40.90
2018-04-17T08:55:59.915Z,39.10
2018-04-17T08:58:32.519Z,40.20
2018-04-17T09:01:04.850Z,38.00
2018-04-17T09:03:37.049Z,38.50
2018-04-17T09:06:09.136Z,39.30
2018-04-17T09:08:41.301Z,39.60
2018-04-17T09:11:14.427Z,41.90
2018-04-17T09:13:47.404Z,45.10
2018-04-17T09:16:19.707Z,45.00
2018-04-17T09:18:51.831Z,44.90
2018-04-17T09:21:23.916Z,45.20
2018-04-17T09:23:56.777Z,43.40
2018-04-17T09:26:30.130Z,43.30
2018-04-17T09:29:02.257Z,42.60
2018-04-17T09:31:35.288Z,42.40
2018-04-17T09:34:07.408Z,42.40
2018-04-17T09:36:40.841Z,42.40
2018-04-17T09:39:13.166Z,42.30
2018-04-17T09:41:45.416Z,40.50
2018-04-17T09:44:17.618Z,41.70
2018-04-17T09:46:50.553Z,41.40
2018-04-17T09:49:22.755Z,41.40
2018-04-17T09:51:54.910Z,41.10
2018-04-17T09:54:27.074Z,40.00
2018-04-17T09:56:59.621Z,40.90
2018-04-17T09:59:32.717Z,40.60
2018-04-17T10:02:04.903Z,42.80
2018-04-17T10:04:37.069Z,42.90
2018-04-17T10:07:09.272Z,43.20
2018-04-17T10:09:42.195Z,44.10
2018-04-17T10:12:14.936Z,44.10
2018-04-17T10:14:47.235Z,43.80
2018-04-17T10:17:19.436Z,43.00
2018-04-17T10:19:51.756Z,46.60
2018-04-17T10:22:24.676Z,44.30
2018-04-17T10:24:56.857Z,44.20
2018-04-17T10:27:28.929Z,44.50
2018-04-17T10:30:08.681Z,44.10
2018-04-17T10:32:40.990Z,43.40
2018-04-17T10:35:14.114Z,43.80
2018-04-17T10:37:46.332Z,43.80
2018-04-17T10:40:18.578Z,44.50
2018-04-17T10:42:50.606Z,45.30
2018-04-17T10:45:22.803Z,44.80
2018-04-17T10:47:54.929Z,44.50
2018-04-17T10:50:27.999Z,44.70
2018-04-17T10:53:00.232Z,44.70
2018-04-17T10:55:32.456Z,44.70
2018-04-17T10:58:05.368Z,42.50
2018-04-17T11:00:37.493Z,42.50
2018-04-17T11:03:09.879Z,43.00
2018-04-17T11:05:42.020Z,45.90
2018-04-17T11:08:15.194Z,44.20
2018-04-17T11:10:47.781Z,46.50
2018-04-17T11:13:19.878Z,45.20
2018-04-17T11:15:52.793Z,44.60
2018-04-17T11:18:24.898Z,44.60
2018-04-17T11:20:57.185Z,44.60
2018-04-17T11:23:29.848Z,45.60
2018-04-17T11:26:02.169Z,44.50
2018-04-17T11:28:34.282Z,47.60
2018-04-17T11:31:06.706Z,45.60
2018-04-17T11:33:39.089Z,45.00
2018-04-17T11:36:11.400Z,45.80
2018-04-17T11:38:43.758Z,47.30
2018-04-17T11:41:15.893Z,44.90
2018-04-17T11:43:47.998Z,45.60
2018-04-17T11:46:20.150Z,43.70
2018-04-17T11:48:52.571Z,43.90
2018-04-17T11:51:24.640Z,43.30
2018-04-17T11:53:57.172Z,45.30
2018-04-17T11:56:29.465Z,45.40
2018-04-17T11:59:01.750Z,45.20
2018-04-17T12:01:34.935Z,45.40
2018-04-17T12:04:08.395Z,45.40
2018-04-17T12:06:40.702Z,45.60
2018-04-17T12:09:13.555Z,46.60
2018-04-17T12:11:45.997Z,46.60
2018-04-17T12:14:18.252Z,44.90
2018-04-17T12:16:51.617Z,46.10
2018-04-17T12:19:23.821Z,46.10
2018-04-17T12:21:56.717Z,48.30
2018-04-17T12:24:29.068Z,48.30
2018-04-17T12:27:02.023Z,45.90
2018-04-17T12:29:34.178Z,45.90
2018-04-17T12:32:06.598Z,46.10
2018-04-17T12:34:41.077Z,45.40
2018-04-17T12:37:13.244Z,45.40
2018-04-17T12:39:45.422Z,44.90
2018-04-17T12:42:17.516Z,44.90
2018-04-17T12:44:50.687Z,45.50
2018-04-17T12:47:23.016Z,45.30
2018-04-17T12:49:55.423Z,45.60
2018-04-17T12:52:27.621Z,45.00
2018-04-17T12:55:00.590Z,46.20
2018-04-17T12:57:33.532Z,46.20
2018-04-17T13:00:05.880Z,46.90
2018-04-17T13:02:38.079Z,45.40
2018-04-17T13:05:10.194Z,44.60
2018-04-17T13:07:43.321Z,44.80
2018-04-17T13:10:15.386Z,44.60
2018-04-17T13:12:47.495Z,46.50
2018-04-17T13:15:19.802Z,44.80
2018-04-17T13:17:52.761Z,43.70
2018-04-17T13:20:24.918Z,43.70
2018-04-17T13:22:57.792Z,45.60
2018-04-17T13:25:29.964Z,45.60
2018-04-17T13:28:02.125Z,43.70
2018-04-17T13:30:35.165Z,44.30
2018-04-17T13:33:08.040Z,43.10
2018-04-17T13:35:41.050Z,44.70
2018-04-17T13:38:13.376Z,44.70
2018-04-17T13:40:45.477Z,45.60
2018-04-17T13:43:18.560Z,45.30
2018-04-17T13:45:51.028Z,45.20
2018-04-17T13:48:24.270Z,46.00
2018-04-17T13:50:56.588Z,45.30
2018-04-17T13:53:29.454Z,45.50
2018-04-17T13:56:01.645Z,45.40
2018-04-17T13:58:35.047Z,43.40
2018-04-17T14:01:07.997Z,43.40
2018-04-17T14:03:40.179Z,43.40
2018-04-17T14:06:13.137Z,43.50
2018-04-17T14:08:45.388Z,43.50
2018-04-17T14:11:17.557Z,45.20
2018-04-17T14:13:49.662Z,45.10
2018-04-17T14:16:22.084Z,46.80
2018-04-17T14:18:54.311Z,45.00
2018-04-17T14:21:26.681Z,46.10
2018-04-17T14:23:58.800Z,44.30
2018-04-17T14:26:30.888Z,45.30
2018-04-17T14:29:03.135Z,44.40
2018-04-17T14:31:35.413Z,45.60
2018-04-17T14:34:07.489Z,45.90
2018-04-17T14:36:39.744Z,46.20
2018-04-17T14:39:11.915Z,46.50
2018-04-17T14:41:44.045Z,44.80
2018-04-17T14:44:17.033Z,45.00
2018-04-17T14:46:50.089Z,46.60
2018-04-17T14:49:22.436Z,46.50
2018-04-17T14:51:54.631Z,44.80
2018-04-17T14:54:26.724Z,44.20
2018-04-17T14:56:58.798Z,45.40
2018-04-17T14:59:31.695Z,45.30
2018-04-17T15:02:03.991Z,45.20
2018-04-17T15:04:36.171Z,45.50
2018-04-17T15:07:08.251Z,45.60
2018-04-17T15:09:40.503Z,46.10
2018-04-17T15:12:12.933Z,44.90
2018-04-17T15:14:45.942Z,46.10
2018-04-17T15:17:18.157Z,45.90
2018-04-17T15:19:50.404Z,45.70
2018-04-17T15:22:22.545Z,44.70
2018-04-17T15:24:54.806Z,45.00
2018-04-17T15:27:26.925Z,45.10
2018-04-17T15:29:59.177Z,44.30
2018-04-17T15:32:31.611Z,43.50
2018-04-17T15:35:04.681Z,46.10
2018-04-17T15:37:36.806Z,46.10
2018-04-17T15:40:08.898Z,46.00
2018-04-17T15:42:41.056Z,44.50
2018-04-17T15:45:13.177Z,45.50
2018-04-17T15:47:45.251Z,46.70
2018-04-17T15:50:17.844Z,45.00
2018-04-17T15:52:50.045Z,45.10
2018-04-17T15:55:22.140Z,46.10
2018-04-17T15:57:55.296Z,45.30
2018-04-17T16:00:28.404Z,47.90
2018-04-17T16:03:00.585Z,47.90
2018-04-17T16:05:33.551Z,46.40
2018-04-17T16:08:05.948Z,46.30
2018-04-17T16:10:38.216Z,46.00
2018-04-17T16:13:10.558Z,46.60
2018-04-17T16:15:42.729Z,47.30
2018-04-17T16:18:15.819Z,47.50
2018-04-17T16:20:47.855Z,47.40
2018-04-17T16:23:20.065Z,46.90
2018-04-17T16:25:52.448Z,47.30
2018-04-17T16:28:24.724Z,47.30
2018-04-17T16:30:57.025Z,48.80
2018-04-17T16:33:29.305Z,47.80
2018-04-17T16:36:01.597Z,48.60
2018-04-17T16:38:33.944Z,47.90
2018-04-17T16:41:06.091Z,48.70
2018-04-17T16:43:38.207Z,48.00
2018-04-17T16:46:10.565Z,48.40
2018-04-17T16:48:42.742Z,47.70
2018-04-17T16:51:15.307Z,48.10
2018-04-17T16:53:47.498Z,48.10
2018-04-17T16:56:19.631Z,46.90
2018-04-17T16:58:51.848Z,47.50
2018-04-17T17:01:24.950Z,48.80
2018-04-17T17:03:57.360Z,48.50
2018-04-17T17:06:29.623Z,48.30
2018-04-17T17:09:01.858Z,48.20
2018-04-17T17:11:34.799Z,48.60
2018-04-17T17:14:07.490Z,48.60
2018-04-17T17:16:39.766Z,49.10
2018-04-17T17:19:11.909Z,49.00
2018-04-17T17:21:44.133Z,48.50
2018-04-17T17:27:07.623Z,49.20
2018-04-17T17:29:40.472Z,49.30
2018-04-17T17:32:13.480Z,50.00
2018-04-17T17:34:45.734Z,49.70
2018-04-17T17:37:17.895Z,49.40
2018-04-17T17:39:49.967Z,49.90
2018-04-17T17:42:22.374Z,49.90
2018-04-17T17:44:55.403Z,49.80
2018-04-17T17:47:27.554Z,49.80
2018-04-17T17:49:59.907Z,51.20
2018-04-17T17:52:32.705Z,51.30
2018-04-17T17:55:04.780Z,50.70
2018-04-17T17:57:36.889Z,51.30
2018-04-17T18:00:09.027Z,51.50
2018-04-17T18:02:41.213Z,51.50
2018-04-17T18:05:13.241Z,52.20
2018-04-17T18:07:45.526Z,52.90
2018-04-17T18:10:17.678Z,53.80
2018-04-17T18:12:49.757Z,54.00
2018-04-17T18:15:21.903Z,54.00
2018-04-17T18:17:54.037Z,54.50
2018-04-17T18:20:32.215Z,55.20
2018-04-17T18:23:04.410Z,55.20
2018-04-17T18:25:37.441Z,57.30
2018-04-17T18:28:09.544Z,57.30
2018-04-17T18:30:41.902Z,57.50
2018-04-17T18:33:13.982Z,57.40
2018-04-17T18:35:46.177Z,58.70
2018-04-17T18:38:19.132Z,59.80
2018-04-17T18:40:51.226Z,59.80
2018-04-17T18:43:24.088Z,60.70
2018-04-17T18:45:56.134Z,60.70
2018-04-17T18:48:29.312Z,63.10
2018-04-17T18:51:01.460Z,63.80
2018-04-17T18:53:33.534Z,65.40
2018-04-17T18:56:05.702Z,66.10
2018-04-17T18:58:38.053Z,65.10
2018-04-17T19:01:10.075Z,66.60
2018-04-17T19:03:42.235Z,66.60
2018-04-17T19:06:14.380Z,66.20
2018-04-17T19:08:46.592Z,68.70
2018-04-17T19:11:19.646Z,71.00
2018-04-17T19:13:51.708Z,71.00
2018-04-17T19:16:24.825Z,69.40
2018-04-17T19:18:57.177Z,69.20
2018-04-17T19:21:29.571Z,70.80
2018-04-17T19:24:01.856Z,70.90
2018-04-17T19:26:34.040Z,70.10
2018-04-17T19:29:06.153Z,72.40
2018-04-17T19:31:38.401Z,72.90
2018-04-17T19:34:10.509Z,73.10
2018-04-17T19:36:42.659Z,71.60
2018-04-17T19:39:14.790Z,71.80
2018-04-17T19:41:46.985Z,71.90
2018-04-17T19:44:19.075Z,72.20
2018-04-17T19:46:51.753Z,71.90
2018-04-17T19:49:24.049Z,72.10
2018-04-17T19:51:57.018Z,72.00
2018-04-17T19:54:29.322Z,72.00
2018-04-17T19:57:01.621Z,70.10
2018-04-17T19:59:33.829Z,71.10
2018-04-17T20:02:05.889Z,69.00
2018-04-17T20:04:38.158Z,67.50
2018-04-17T20:07:10.261Z,67.60
2018-04-17T20:09:43.601Z,68.10
2018-04-17T20:12:16.545Z,68.00
2018-04-17T20:14:49.619Z,67.40
2018-04-17T20:17:22.469Z,68.20
2018-04-17T20:19:54.784Z,68.20
2018-04-17T20:22:27.854Z,67.70
2018-04-17T20:25:00.664Z,67.70
2018-04-17T20:27:33.041Z,67.20
2018-04-17T20:30:05.234Z,67.50
2018-04-17T20:32:37.923Z,66.30
2018-04-17T20:35:10.088Z,67.00
2018-04-17T20:37:42.173Z,66.80
2018-04-17T20:40:14.266Z,66.70
2018-04-17T20:42:47.093Z,69.60
2018-04-17T20:45:19.251Z,69.60
2018-04-17T20:47:51.428Z,68.40
2018-04-17T20:50:23.540Z,69.50
2018-04-17T20:52:55.805Z,71.70
2018-04-17T20:55:28.021Z,69.20
2018-04-17T20:58:00.269Z,70.20
2018-04-17T21:00:32.543Z,73.30
2018-04-17T21:03:04.653Z,73.00
2018-04-17T21:05:36.749Z,73.10
2018-04-17T21:08:09.136Z,74.50
2018-04-17T21:10:42.189Z,76.20
2018-04-17T21:13:14.258Z,76.10
2018-04-17T21:15:46.414Z,73.70
2018-04-17T21:18:18.789Z,75.00
2018-04-17T21:20:50.886Z,74.70
2018-04-17T21:23:23.023Z,73.80
2018-04-17T21:25:55.211Z,73.20
2018-04-17T21:28:27.519Z,73.90
2018-04-17T21:31:00.598Z,73.10
2018-04-17T21:33:33.498Z,73.30
2018-04-17T21:36:06.435Z,74.20
2018-04-17T21:38:38.615Z,74.10
2018-04-17T21:41:10.992Z,75.80
2018-04-17T21:43:43.373Z,76.40
2018-04-17T21:46:16.435Z,76.90
2018-04-17T21:48:48.469Z,76.90
2018-04-17T21:51:20.568Z,76.60
2018-04-17T21:53:53.066Z,77.60
2018-04-17T21:56:26.022Z,78.10
2018-04-17T21:58:58.303Z,78.10
2018-04-17T22:01:33.884Z,77.80
2018-04-17T22:04:06.274Z,76.80
2018-04-17T22:06:38.821Z,79.10
2018-04-17T22:09:11.293Z,78.70
2018-04-17T22:11:43.547Z,78.70
2018-04-17T22:14:15.747Z,79.10
2018-04-17T22:16:48.593Z,79.60
2018-04-17T22:19:20.643Z,79.50
2018-04-17T22:21:52.748Z,80.00
2018-04-17T22:24:24.807Z,79.70
2018-04-17T22:26:57.078Z,80.70
2018-04-17T22:29:29.333Z,79.70
2018-04-17T22:32:01.509Z,81.60
2018-04-17T22:34:34.100Z,82.10
2018-04-17T22:37:06.889Z,81.20
2018-04-17T22:39:39.776Z,82.70
2018-04-17T22:42:13.137Z,82.80
2018-04-17T22:44:45.419Z,82.80
2018-04-17T22:47:17.600Z,83.10
2018-04-17T22:49:50.692Z,83.60
2018-04-17T22:52:23.552Z,83.50
2018-04-17T22:54:56.182Z,83.50
2018-04-17T22:57:28.342Z,84.30
2018-04-17T23:00:00.449Z,83.70
2018-04-17T23:02:33.577Z,85.20
2018-04-17T23:05:06.230Z,85.10
2018-04-17T23:07:38.540Z,85.50
2018-04-17T23:10:11.663Z,84.70
2018-04-17T23:12:43.837Z,84.70
2018-04-17T23:15:16.081Z,86.40
2018-04-17T23:17:48.185Z,85.90
2018-04-17T23:20:20.513Z,85.10
2018-04-17T23:22:53.351Z,86.80
2018-04-17T23:25:25.502Z,86.10
2018-04-17T23:27:58.692Z,86.30
2018-04-17T23:30:31.783Z,86.50
2018-04-17T23:33:03.890Z,86.60
2018-04-17T23:35:37.838Z,85.80
2018-04-17T23:38:09.974Z,85.80
2018-04-17T23:40:42.833Z,85.70
2018-04-17T23:43:15.050Z,85.60
2018-04-17T23:45:47.341Z,85.80
2018-04-17T23:48:19.671Z,86.10
2018-04-17T23:50:52.649Z,85.00
2018-04-17T23:53:24.680Z,85.00
2018-04-17T23:55:56.837Z,86.40
2018-04-17T23:58:29.012Z,86.30
